Flight Track Log - Related Links

Times and Time Zones

All times are in EDT time to prevent confusion due to time zone crossing. See the C-GFEX flight status page for this flight to view local times or setup timezone preferences in your user account.

Time Position Orientation Groundspeed Altitude Reporting Facility
EDT Latitude Longitude Course Direction KTS MPH feet Rate Location/Type
Wed 03:57:34 PM 48.5736 -122.3189 137° Southeast 166 191 8,100  Level Seattle Center
Wed 03:58:35 PM 48.5425 -122.2708 134° Southeast 164 189 9,600 885 Climbing Seattle Center
Wed 03:59:36 PM 48.5119 -122.2217 133° Southeast 161 185 9,900 197 Climbing Seattle Center
Wed 04:00:37 PM 48.4747 -122.1639 134° Southeast 174 200 10,000 49 Climbing Seattle Center
Wed 04:01:38 PM 48.4367 -122.1014 133° Southeast 190 219 10,000  Level Seattle Center
Wed 04:02:39 PM 48.4006 -122.0403 132° Southeast 197 227 10,000 -49 Level Seattle Center
Wed 04:03:00 PM -19.8069 -160.1914 137° Southeast  Level Estimated
Wed 04:03:40 PM 48.3619 -121.9825 135° Southeast 198 228 9,900  Level Seattle Center
Wed 04:04:41 PM 48.3208 -121.9264 138° Southeast 201 231 10,000 49 Climbing Seattle Center
Wed 04:05:42 PM 48.2714 -121.8647 140° Southeast 195 224 10,000 -98 Level Seattle Center
Wed 04:06:43 PM 48.2286 -121.8111 140° Southeast 200 230 9,800 -49 Descending Seattle Center
Wed 04:07:44 PM 48.1878 -121.7561 138° Southeast 200 230 9,900 98 Climbing Seattle Center
Wed 04:08:45 PM 48.1478 -121.7072 141° Southeast 190 219 10,000  Climbing Seattle Center
Wed 04:09:45 PM 48.1069 -121.6572 141° Southeast 190 219 9,900 -99 Descending Seattle Center
Wed 04:10:46 PM 48.0644 -121.6072 142° Southeast 194 223 9,800 -98 Descending Seattle Center
Wed 04:11:47 PM 48.0222 -121.5553 142° Southeast 198 228 9,700 -98 Descending Seattle Center
Wed 04:12:00 PM 48.0273 -121.5631 142° Southeast  Level FlightAware Approximate
Wed 04:12:48 PM 47.9794 -121.5061 142° Southeast 197 227 9,600  Level Seattle Center
Wed 04:13:49 PM 47.9375 -121.4594 143° Southeast 191 220 9,700 49 Climbing Seattle Center
Wed 04:14:50 PM 47.8947 -121.4106 143° Southeast 195 224 9,700  Level Seattle Center
Wed 04:15:51 PM 47.8428 -121.3544 144° Southeast 194 223 9,700 33 Level Seattle Center
Wed 04:17:00 PM 47.8002 -121.3038 141° Southeast  Level FlightAware Approximate
Wed 04:17:53 PM 47.7575 -121.2592 141° Southeast 189 217 9,800  Level Seattle Center
Wed 04:18:53 PM 47.7153 -121.2164 146° Southeast 191 220 9,900  Climbing Seattle Center
Wed 04:19:54 PM 47.6742 -121.1667 141° Southeast 193 222 9,800 -98 Descending Seattle Center
Wed 04:20:55 PM 47.6308 -121.1189 143° Southeast 195 224 9,700 -49 Descending Seattle Center
Wed 04:21:56 PM 47.5897 -121.0711 142° Southeast 192 221 9,700  Level Seattle Center
Wed 04:22:57 PM 47.5469 -121.0256 144° Southeast 192 221 9,700 -49 Level Seattle Center
Wed 04:23:58 PM 47.5069 -120.9744 139° Southeast 193 222 9,600  Descending Seattle Center
Wed 04:24:59 PM 47.4608 -120.9111 137° Southeast 191 220 9,700 49 Climbing Seattle Center
Wed 04:26:00 PM 47.4228 -120.8622 139° Southeast 189 217 9,700 -148 Level Seattle Center
Wed 04:27:01 PM 47.3886 -120.8175 138° Southeast 188 216 9,400 -98 Descending Seattle Center
Wed 04:28:02 PM 47.3458 -120.7533 135° Southeast 185 213 9,500 49 Climbing Seattle Center
Wed 04:29:03 PM 47.3092 -120.7014 136° Southeast 185 213 9,500  Level Seattle Center
Wed 04:30:04 PM 47.2697 -120.6469 137° Southeast 187 215 9,500  Level Seattle Center
Wed 04:31:04 PM 47.2314 -120.5969 138° Southeast 185 213 9,500  Level Seattle Center
Wed 04:32:05 PM 47.1903 -120.5492 142° Southeast 189 217 9,500  Level Seattle Center
Wed 04:33:06 PM 47.1500 -120.5006 141° Southeast 188 216 9,500  Level Seattle Center
Wed 04:34:07 PM 47.1128 -120.4533 139° Southeast 186 214 9,500 -49 Level Seattle Center
Wed 04:35:08 PM 47.0714 -120.4044 141° Southeast 190 219 9,400 49 Descending Seattle Center
Wed 04:36:09 PM 47.0272 -120.3536 142° Southeast 185 213 9,600 49 Climbing Seattle Center
Wed 04:37:10 PM 46.9844 -120.3117 146° Southeast 184 212 9,500 -49 Descending Seattle Center
Wed 04:38:11 PM 46.9447 -120.2633 140° Southeast 187 215 9,500  Level Seattle Center
Wed 04:39:12 PM 46.9044 -120.2167 142° Southeast 187 215 9,500 -49 Level Seattle Center
Wed 04:40:13 PM 46.8633 -120.1708 143° Southeast 187 215 9,400  Descending Seattle Center
Wed 04:41:14 PM 46.8211 -120.1267 144° Southeast 188 216 9,500 49 Climbing Seattle Center
Wed 04:42:15 PM 46.7783 -120.0850 146° Southeast 185 213 9,500 -49 Level Seattle Center
Wed 04:43:16 PM 46.7372 -120.0392 143° Southeast 186 214 9,400 49 Descending Seattle Center
Wed 04:44:17 PM 46.6969 -119.9942 143° Southeast 184 212 9,600 49 Climbing Seattle Center
Wed 04:45:18 PM 46.6569 -119.9506 143° Southeast 180 207 9,500 -49 Descending Seattle Center
Wed 04:46:19 PM 46.6072 -119.8950 142° Southeast 188 216 9,500 98 Level Seattle Center
Wed 04:47:20 PM 46.5700 -119.8453 137° Southeast 184 212 9,700 98 Climbing Seattle Center
Wed 04:48:21 PM 46.5311 -119.7972 140° Southeast 184 212 9,700 -328 Level Seattle Center
Wed 04:50:23 PM 46.4489 -119.6947 139° Southeast 198 228 8,700 -492 Descending Seattle Center
Wed 04:51:24 PM 46.4081 -119.6403 137° Southeast 199 229 8,200 -541 Descending Seattle Center
Wed 04:52:25 PM 46.3656 -119.5875 139° Southeast 202 232 7,600 -492 Descending Seattle Center
Wed 04:53:26 PM 46.3217 -119.5333 140° Southeast 205 236 7,200 -443 Descending Seattle Center
Wed 04:54:27 PM 46.2789 -119.4792 139° Southeast 206 237 6,700 -397 Descending Seattle Center
Wed 04:55:27 PM 46.2347 -119.4278 141° Southeast 206 237 6,400 -99 Descending Seattle Center
Wed 04:56:28 PM 46.1917 -119.3789 142° Southeast 200 230 6,500 49 Climbing Seattle Center
Wed 04:57:29 PM 46.1494 -119.3328 143° Southeast 196 226 6,500 -49 Level Seattle Center
Wed 04:58:30 PM 46.1056 -119.2858 143° Southeast 195 224 6,400 -49 Descending Seattle Center
Wed 04:59:31 PM 46.0619 -119.2392 143° Southeast 196 226 6,400 49 Level Seattle Center
Wed 05:00:32 PM 46.0100 -119.1856 144° Southeast 193 222 6,500  Climbing Seattle Center
Wed 05:01:33 PM 45.9667 -119.1378 143° Southeast 194 223 6,400  Descending Seattle Center
Wed 05:02:34 PM 45.9214 -119.0967 148° Southeast 194 223 6,500 148 Climbing Seattle Center
Wed 05:03:35 PM 45.8814 -119.0464 139° Southeast 192 221 6,700 49 Climbing Seattle Center
Wed 05:04:36 PM 45.8378 -119.0031 145° Southeast 192 221 6,600  Descending Seattle Center
Wed 05:05:37 PM 45.7947 -118.9550 142° Southeast 194 223 6,700 -49 Climbing Seattle Center
Wed 05:06:38 PM 45.7519 -118.9047 141° Southeast 196 226 6,500 -98 Descending Seattle Center
Wed 05:07:39 PM 45.7089 -118.8569 142° Southeast 197 227 6,500 -295 Level Seattle Center
Wed 05:08:40 PM 45.6797 -118.7864 121° Southeast 222 255 5,900 -1,967 Descending Seattle Center
Wed 05:09:41 PM 45.6717 -118.8436 259° West 247 284 2,500 -3,344 Descending Seattle Center

Login

Don't have an account? Register now (free) for customized features, flight alerts, and more!